Alliance, NE (69301)

6:43 PM MDT on July 28, 2014 (GMT -0600)
Alliance Municipal (KAIA) Elev 3930 ft | 42.06 °N, 102.80 °W | Change Station

Current weather conditions updated 50 minutes ago

Scattered Clouds
Scattered Clouds
87 °F
Feels Like 85 °F
N
10
Wind Variable Wind from SSE

Tomorrow is forecast to be Much Cooler than today. Thunderstorms developing in the afternoon.

Today
High -- | Low -- °F
--% Chance of Precip.
Yesterday
High -- | Low -- °F
Precip. -- in
5:40 AM 8:14 PM
Waxing Crescent, 4% visible
Pressure 30.09 in
Visibility 10.0 miles
Clouds Scattered Clouds 11000 ft
Heat Index 85 °F
Dew Point 53 °F
Humidity 31%
Rainfall 0.00 in
Snow Depth Not available.
UV 2 out of 12
Pollen 7.40 out of 12
Air Quality Not available.
Flu Activity Not available.
METAR KAIA 282353Z AUTO 16009KT 10SM SCT110 31/12 A3021 RMK AO2 SLP190 T03060117 10317 20267 58017

More Conditions Fewer Conditions

Pressure 30.09 in
Visibility 10.0 miles
Clouds Scattered Clouds 11000 ft
Heat Index 85 °F
Dew Point 53 °F
Humidity 31%
Rainfall 0.00 in
Snow Depth Not available.
UV 2 out of 12
Pollen 7.40 out of 12
Air Quality Not available.
Flu Activity Not available.
METAR KAIA 282353Z AUTO 16009KT 10SM SCT110 31/12 A3021 RMK AO2 SLP190 T03060117 10317 20267 58017

More Conditions Fewer Conditions

10-Day Weather Forecast

Almanac

Astronomy

Jul. 28, 2014 Rise Set
Actual Time 5:40 AM MDT 8:14 PM MDT
Civil Twilight 5:08 AM MDT 8:46 PM MDT
Nautical Twilight 4:28 AM MDT 9:26 PM MDT
Astronomical Twilight 3:43 AM MDT 10:11 PM MDT
Moon 7:27 AM MDT (7/28) 8:54 PM MDT (7/28)
Length of Visible Light 15h 37m
Length of Day
14h 33m
Tomorrow will be 2m 2s shorter.
Waxing Crescent, 4% of the Moon is Illuminated
Today
Waxing Crescent
Aug 3
First Quarter
Aug 10
Full
Aug 17
Last Quarter
Aug 25
New

Today's Extremes

State Highs State Lows

Community

WunderPhotos

Upload Photos

1,738,571 photos uploaded!

WunderBlogs® & News

Nearby

Snow Depth

Station Depth Elevation
No new snow has been reported.

Earthquake Activity

City Distance Mag. Time & Date
No recent earthquake activity has been reported nearby.
Minimum magnitude displayed is 2.5.

Coastal Water Temperatures

Place Temperature
No Stations Reporting

Nearby Weather Stations

Station Location Temp. Heat Index Dew Point Humidity Wind Precip. Elev Updated Type
Panhandle Coop/Box Butte Co, Alliance, NE 82.5 °F 83 °F 59 °F 45% NNE  at  11.0 mph 0.00 in / hr 4140 ft 6:39 PM MDT Normal
Wayne Rd., Alliance, NE 84.7 °F 84 °F 56 °F 37% SSE  at  7.0 mph 0.00 in / hr 4091 ft 6:40 PM MDT Normal

Show More Stations Show Fewer Stations